Time;durP1;ratioP1;P1;durP2;ratioP2;P2;SDS_P1;SDS_P2;PMS_P1;PMS_P2;Temp;Humidity;BMP_temperature;BMP_pressure;BME280_temperature;BME280_humidity;BME280_pressure;Samples;Min_cycle;Max_cycle;Signal;HPM_P1;HPM_P2
2023/06/16 00:00:59;;;;;;;;;15.40;14.40;;;;;27.52;30.15;101044.91;5029412;28;29732;-58
2023/06/16 00:03:25;;;;;;;;;11.00;10.25;;;;;27.39;29.92;101050.28;4975382;28;29734;-59
2023/06/16 00:05:51;;;;;;;;;12.00;10.50;;;;;27.29;30.21;101042.06;5028530;28;29608;-58
2023/06/16 00:08:16;;;;;;;;;17.40;17.00;;;;;27.31;30.20;101051.88;5029179;28;29763;-56
2023/06/16 00:10:42;;;;;;;;;15.25;13.50;;;;;27.29;30.26;101051.38;5029511;28;29482;-57
2023/06/16 00:13:08;;;;;;;;;12.50;11.75;;;;;27.37;29.80;101052.56;5029348;28;30276;-57
2023/06/16 00:15:33;;;;;;;;;11.00;11.00;;;;;27.32;30.50;101052.72;5010971;28;29517;-57
2023/06/16 00:18:00;;;;;;;;;12.75;12.75;;;;;27.36;29.87;101050.91;5029345;28;29598;-58
2023/06/16 00:20:26;;;;;;;;;12.80;12.00;;;;;27.33;29.94;101060.00;5044641;28;29706;-58
2023/06/16 00:22:52;;;;;;;;;12.60;12.60;;;;;27.38;29.91;101054.25;5028618;28;30751;-58
2023/06/16 00:25:17;;;;;;;;;12.50;11.75;;;;;27.29;29.99;101048.56;5029091;28;29726;-57
2023/06/16 00:27:43;;;;;;;;;12.00;11.00;;;;;27.26;29.93;101051.97;5028915;28;29254;-57
2023/06/16 00:30:09;;;;;;;;;11.50;11.50;;;;;27.19;30.18;101041.19;5029272;28;29510;-58
2023/06/16 00:32:35;;;;;;;;;11.80;10.40;;;;;27.25;30.00;101055.16;5028688;28;29664;-59
2023/06/16 00:35:00;;;;;;;;;11.75;11.75;;;;;27.24;30.11;101051.47;5028834;28;29968;-56
2023/06/16 00:37:26;;;;;;;;;12.00;10.50;;;;;27.28;30.21;101048.84;5029261;28;29477;-56
2023/06/16 00:39:51;;;;;;;;;10.50;10.00;;;;;27.25;30.07;101049.50;5029225;28;29512;-56
2023/06/16 00:42:16;;;;;;;;;22.75;19.75;;;;;27.19;30.09;101046.81;5028482;28;29933;-58
2023/06/16 00:44:42;;;;;;;;;12.50;12.25;;;;;27.26;30.37;101056.81;5029031;28;29797;-60
2023/06/16 00:47:07;;;;;;;;;14.50;12.50;;;;;27.23;29.93;101043.34;5029294;28;30135;-58
2023/06/16 00:49:33;;;;;;;;;11.25;11.25;;;;;27.22;30.21;101048.16;5029119;28;29779;-58
2023/06/16 00:51:58;;;;;;;;;10.75;9.25;;;;;27.26;30.21;101051.97;5010934;28;29793;-58
2023/06/16 00:54:26;;;;;;;;;9.00;8.25;;;;;27.29;30.29;101053.34;5028975;28;28988;-58
2023/06/16 00:56:52;;;;;;;;;10.00;10.00;;;;;27.17;30.45;101053.91;5011216;28;29415;-58
2023/06/16 00:59:17;;;;;;;;;11.50;10.50;;;;;27.06;30.76;101051.31;5011105;28;29996;-57
2023/06/16 01:01:42;;;;;;;;;7.25;7.25;;;;;27.00;30.73;101043.31;4995080;28;29858;-57
2023/06/16 01:04:09;;;;;;;;;8.00;8.00;;;;;26.96;30.94;101036.66;5028263;28;29305;-58
2023/06/16 01:06:41;;;;;;;;;9.60;9.40;;;;;26.97;31.00;101056.03;5011182;28;29162;-59
2023/06/16 01:09:56;;;;;;;;;9.60;8.80;;;;;26.99;30.78;101053.75;5028938;28;29094;-59
2023/06/16 01:12:47;;;;;;;;;8.80;8.20;;;;;26.93;30.89;101040.94;5023954;28;29837;-58
2023/06/16 01:15:15;;;;;;;;;13.20;13.00;;;;;27.03;30.61;101048.31;5010556;28;30037;-57
2023/06/16 01:17:43;;;;;;;;;22.80;19.80;;;;;26.99;30.91;101048.09;5032183;28;29709;-58
2023/06/16 01:20:10;;;;;;;;;11.80;10.80;;;;;26.99;30.75;101050.09;5031966;28;30195;-57
2023/06/16 01:23:07;;;;;;;;;8.00;8.00;;;;;26.99;30.75;101044.47;5031602;28;30291;-56
2023/06/16 01:25:33;;;;;;;;;10.20;10.00;;;;;26.88;30.86;101033.41;4995147;28;29586;-58
2023/06/16 01:28:00;;;;;;;;;13.75;13.75;;;;;26.87;31.12;101044.97;5014319;28;29861;-57
2023/06/16 01:30:28;;;;;;;;;18.80;17.40;;;;;26.86;31.06;101044.16;5014131;28;30001;-59
2023/06/16 01:32:55;;;;;;;;;10.60;10.00;;;;;26.81;31.23;101041.44;5013990;28;29781;-58
2023/06/16 01:35:21;;;;;;;;;14.40;11.60;;;;;26.67;31.67;101041.47;5031467;28;29834;-57
2023/06/16 01:37:47;;;;;;;;;10.40;9.80;;;;;26.46;31.97;101027.84;5013967;28;29857;-59
2023/06/16 01:40:13;;;;;;;;;13.60;10.20;;;;;26.57;31.97;101039.69;5014323;28;29788;-58
2023/06/16 01:42:38;;;;;;;;;12.25;11.00;;;;;26.64;31.68;101034.47;5031266;28;30134;-57
2023/06/16 01:45:04;;;;;;;;;9.00;9.00;;;;;26.50;32.01;101025.22;5031829;28;29773;-58
2023/06/16 01:47:30;;;;;;;;;16.40;16.20;;;;;26.55;32.22;101039.19;5046494;28;30072;-58
2023/06/16 01:49:56;;;;;;;;;16.25;15.25;;;;;26.52;32.27;101034.22;5031908;28;30112;-58
2023/06/16 01:52:21;;;;;;;;;13.20;13.20;;;;;26.54;32.16;101040.34;5006525;28;31077;-58
2023/06/16 01:54:47;;;;;;;;;11.50;10.75;;;;;26.49;32.14;101032.84;5007472;28;29628;-58
2023/06/16 01:57:12;;;;;;;;;13.50;13.50;;;;;26.46;32.42;101041.09;5031020;28;29966;-57
2023/06/16 01:59:38;;;;;;;;;9.50;9.50;;;;;26.43;32.79;101048.16;5013280;28;30040;-57
2023/06/16 02:02:05;;;;;;;;;17.75;13.75;;;;;26.37;32.58;101033.34;5030246;28;29869;-55
2023/06/16 02:04:32;;;;;;;;;18.20;16.40;;;;;26.48;32.58;101050.03;5012682;28;30383;-58
2023/06/16 02:07:08;;;;;;;;;13.00;11.80;;;;;26.48;32.36;101050.03;5030018;28;29722;-58
2023/06/16 02:09:35;;;;;;;;;13.40;13.40;;;;;26.48;32.60;101052.84;5031302;28;28885;-57
2023/06/16 02:12:01;;;;;;;;;10.40;10.40;;;;;26.47;32.56;101049.19;5046320;28;29833;-57
2023/06/16 02:14:27;;;;;;;;;13.00;11.50;;;;;26.50;32.56;101050.53;5046296;28;29852;-60
2023/06/16 02:16:52;;;;;;;;;11.20;11.00;;;;;26.51;32.41;101052.22;5029483;28;29428;-58
2023/06/16 02:19:18;;;;;;;;;11.50;10.75;;;;;26.44;32.20;101043.34;5030926;28;30162;-56
2023/06/16 02:21:43;;;;;;;;;10.50;10.50;;;;;26.46;32.56;101050.34;5031010;28;29987;-58
2023/06/16 02:24:09;;;;;;;;;11.25;9.00;;;;;26.49;32.47;101051.69;5030397;28;29962;-58
2023/06/16 02:26:35;;;;;;;;;10.75;10.75;;;;;26.48;32.30;101053.69;5030841;28;29749;-58
2023/06/16 02:29:01;;;;;;;;;11.00;10.00;;;;;26.47;32.28;101049.19;5030219;28;29968;-58
2023/06/16 02:31:27;;;;;;;;;13.60;12.40;;;;;26.48;32.42;101047.22;5030452;28;29736;-57
2023/06/16 02:33:53;;;;;;;;;13.20;12.00;;;;;26.48;32.19;101048.06;5030360;28;29552;-57
2023/06/16 02:36:19;;;;;;;;;12.20;11.60;;;;;26.48;31.91;101042.44;5030967;28;30034;-58
2023/06/16 02:38:45;;;;;;;;;16.25;12.50;;;;;26.46;31.98;101043.91;5030654;28;29667;-59
2023/06/16 02:41:11;;;;;;;;;13.50;12.00;;;;;26.44;32.62;101040.53;5030654;28;29923;-57
2023/06/16 02:43:36;;;;;;;;;12.00;12.00;;;;;26.35;33.63;101041.28;5030232;28;29503;-58
2023/06/16 02:46:02;;;;;;;;;13.75;13.75;;;;;26.33;33.79;101043.59;5030844;28;29534;-58
2023/06/16 02:48:27;;;;;;;;;19.00;15.25;;;;;26.31;33.90;101040.22;5030399;28;30033;-58
2023/06/16 02:50:53;;;;;;;;;18.75;17.75;;;;;26.21;34.37;101040.41;5030226;28;30477;-57
2023/06/16 02:53:19;;;;;;;;;20.50;19.00;;;;;26.14;34.73;101032.38;5030620;28;29767;-56
2023/06/16 02:55:46;;;;;;;;;17.00;16.50;;;;;26.13;34.47;101036.34;5030544;28;29723;-57
2023/06/16 02:58:12;;;;;;;;;13.40;13.40;;;;;26.13;33.80;101044.78;5030579;28;29674;-57
2023/06/16 03:00:38;;;;;;;;;13.50;12.75;;;;;26.08;34.59;101042.91;5030269;28;29436;-55
2023/06/16 03:03:04;;;;;;;;;15.50;15.50;;;;;25.98;35.09;101043.09;5030374;28;29546;-57
2023/06/16 03:05:31;;;;;;;;;13.40;13.40;;;;;25.98;35.41;101040.28;5028279;28;29381;-56
2023/06/16 03:07:56;;;;;;;;;16.80;16.80;;;;;25.93;35.52;101044.03;5030548;28;29700;-55
2023/06/16 03:10:22;;;;;;;;;14.75;14.75;;;;;25.91;35.49;101043.50;5030619;28;29551;-56
2023/06/16 03:12:48;;;;;;;;;14.50;14.50;;;;;25.92;35.47;101038.72;5030049;28;29168;-57
2023/06/16 03:15:14;;;;;;;;;17.50;15.75;;;;;25.91;35.36;101039.84;5030617;28;29831;-57
2023/06/16 03:17:40;;;;;;;;;13.00;12.40;;;;;25.81;35.14;101041.72;5030260;28;29941;-58
2023/06/16 03:20:06;;;;;;;;;15.60;15.60;;;;;25.82;34.55;101042.56;5029937;28;30586;-56
2023/06/16 03:22:32;;;;;;;;;12.60;12.60;;;;;25.83;34.49;101042.22;5029792;28;29688;-58
2023/06/16 03:25:02;;;;;;;;;12.50;12.50;;;;;25.80;34.43;101053.25;5011935;28;29568;-58
2023/06/16 03:27:29;;;;;;;;;10.80;10.80;;;;;25.79;34.10;101049.63;5030373;28;29838;-57
2023/06/16 03:29:55;;;;;;;;;13.40;12.40;;;;;25.78;34.01;101055.56;5029734;28;29917;-57
2023/06/16 03:32:20;;;;;;;;;11.25;10.25;;;;;25.79;34.02;101045.97;5029906;28;29824;-58
2023/06/16 03:34:46;;;;;;;;;14.50;13.00;;;;;25.80;33.72;101056.91;5029860;28;29252;-57
2023/06/16 03:37:12;;;;;;;;;10.75;9.75;;;;;25.78;33.91;101056.38;5045286;28;29539;-59
2023/06/16 03:39:37;;;;;;;;;12.75;12.00;;;;;25.75;33.90;101050.53;5029777;28;29704;-58
2023/06/16 03:42:03;;;;;;;;;14.50;13.50;;;;;25.69;33.82;101047.00;5029656;28;29908;-58
2023/06/16 03:44:29;;;;;;;;;10.00;10.00;;;;;25.69;33.66;101050.66;5029745;28;29378;-59
2023/06/16 03:46:55;;;;;;;;;13.20;12.20;;;;;25.71;33.71;101050.31;5030454;28;29327;-58
2023/06/16 03:49:20;;;;;;;;;10.00;10.00;;;;;25.69;34.04;101058.22;5029326;28;29559;-58
2023/06/16 03:51:46;;;;;;;;;11.00;10.50;;;;;25.66;33.82;101053.25;5029910;28;29622;-58
2023/06/16 03:54:11;;;;;;;;;11.00;11.00;;;;;25.57;34.04;101037.06;5029522;28;29426;-57
2023/06/16 03:56:37;;;;;;;;;13.75;12.75;;;;;25.57;33.74;101045.47;5030198;28;29034;-59
2023/06/16 03:59:03;;;;;;;;;13.75;12.00;;;;;25.50;33.85;101036.59;5029642;28;30045;-55
2023/06/16 04:01:30;;;;;;;;;13.50;13.00;;;;;25.51;33.96;101043.88;5029466;28;29624;-56
2023/06/16 04:03:56;;;;;;;;;13.60;12.00;;;;;25.61;34.11;101047.69;5030022;28;29832;-55
2023/06/16 04:06:21;;;;;;;;;12.50;10.50;;;;;25.62;34.00;101052.19;5029521;28;29754;-57
2023/06/16 04:08:47;;;;;;;;;14.50;13.00;;;;;25.63;33.94;101043.44;5029276;28;30734;-56
2023/06/16 04:11:14;;;;;;;;;15.50;13.50;;;;;25.63;33.94;101060.31;5029290;28;29720;-57
2023/06/16 04:13:40;;;;;;;;;9.80;9.60;;;;;25.63;34.01;101057.50;5029446;28;29688;-57
2023/06/16 04:16:05;;;;;;;;;10.50;10.50;;;;;25.61;34.30;101053.31;5029780;28;29794;-57
2023/06/16 04:18:31;;;;;;;;;10.00;10.00;;;;;25.49;34.25;101039.72;5028884;28;29675;-58
2023/06/16 04:20:57;;;;;;;;;11.75;11.75;;;;;25.58;34.33;101061.22;5029544;28;29415;-56
2023/06/16 04:23:22;;;;;;;;;12.00;11.00;;;;;25.60;34.34;101065.69;5028947;28;29966;-58
2023/06/16 04:25:48;;;;;;;;;10.25;9.00;;;;;25.54;34.53;101062.13;5007756;28;29609;-59
2023/06/16 04:28:17;;;;;;;;;12.00;12.00;;;;;25.51;35.16;101069.16;5029507;28;29756;-58
2023/06/16 04:30:43;;;;;;;;;13.00;12.00;;;;;25.50;35.77;101070.31;5029119;28;29378;-58
2023/06/16 04:33:09;;;;;;;;;14.60;11.60;;;;;25.43;35.63;101064.25;5029478;28;29866;-57
2023/06/16 04:35:34;;;;;;;;;12.00;12.00;;;;;25.34;35.41;101063.28;5029646;28;29619;-56
2023/06/16 04:38:01;;;;;;;;;11.00;11.00;;;;;25.36;35.45;101073.06;5029361;28;30326;-57
2023/06/16 04:40:26;;;;;;;;;15.00;12.60;;;;;25.45;35.30;101073.19;5028903;28;29687;-58
2023/06/16 04:42:52;;;;;;;;;12.00;10.75;;;;;25.47;35.05;101067.28;5029153;28;29827;-55
2023/06/16 04:45:18;;;;;;;;;10.75;10.75;;;;;25.49;34.97;101071.44;5029214;28;29460;-58
2023/06/16 04:47:44;;;;;;;;;11.00;11.00;;;;;25.53;35.06;101068.91;5028907;28;29699;-59
2023/06/16 04:50:10;;;;;;;;;13.40;12.20;;;;;25.54;34.75;101057.34;5028088;28;29530;-58
2023/06/16 04:52:36;;;;;;;;;11.75;11.75;;;;;25.50;34.77;101070.31;5029006;28;29603;-59
2023/06/16 04:55:03;;;;;;;;;11.00;10.40;;;;;25.49;35.02;101063.03;5028845;28;30021;-58
2023/06/16 04:57:29;;;;;;;;;12.80;11.60;;;;;25.39;34.41;101049.16;5028587;28;30634;-57
2023/06/16 04:59:54;;;;;;;;;10.75;10.75;;;;;25.46;34.86;101060.84;5028535;28;29812;-56
2023/06/16 05:02:19;;;;;;;;;12.75;12.75;;;;;25.48;34.61;101060.50;5011471;28;29278;-58
2023/06/16 05:04:45;;;;;;;;;10.50;10.50;;;;;25.47;35.02;101068.13;5028657;28;29311;-59
2023/06/16 05:07:11;;;;;;;;;12.50;12.50;;;;;25.48;34.66;101072.59;5028738;28;29851;-58
2023/06/16 05:09:38;;;;;;;;;14.25;12.75;;;;;25.48;34.74;101069.78;5028726;28;29059;-58
2023/06/16 05:12:05;;;;;;;;;11.00;11.00;;;;;25.45;35.04;101050.72;5011340;28;29765;-58
2023/06/16 05:14:31;;;;;;;;;15.00;11.80;;;;;25.55;34.45;101053.41;5028885;28;29540;-60
2023/06/16 05:16:56;;;;;;;;;10.75;10.75;;;;;25.61;34.72;101053.31;5028778;28;29447;-58
2023/06/16 05:19:22;;;;;;;;;11.50;11.50;;;;;25.58;34.66;101052.81;5028543;28;30017;-58
2023/06/16 05:21:47;;;;;;;;;11.75;10.25;;;;;25.53;34.55;101052.88;5028472;28;29291;-59
2023/06/16 05:24:13;;;;;;;;;12.00;11.25;;;;;25.50;34.71;101052.63;5028725;28;29790;-58
2023/06/16 05:26:38;;;;;;;;;12.75;12.00;;;;;25.52;35.16;101048.41;5016786;28;29954;-60
2023/06/16 05:29:04;;;;;;;;;12.75;12.25;;;;;25.49;35.38;101043.34;5003182;28;29788;-58
2023/06/16 05:31:30;;;;;;;;;14.00;14.00;;;;;25.56;35.48;101052.25;5010472;28;29667;-59
2023/06/16 05:33:55;;;;;;;;;11.50;11.00;;;;;25.56;35.58;101043.00;5028184;28;38945;-57
2023/06/16 05:36:24;;;;;;;;;14.00;14.00;;;;;25.65;35.44;101057.16;5028455;28;29457;-59
2023/06/16 05:38:51;;;;;;;;;14.20;14.00;;;;;25.66;35.30;101059.69;5028182;28;29384;-59
2023/06/16 05:41:17;;;;;;;;;15.20;15.00;;;;;25.52;35.29;101054.03;5028418;28;29948;-59
2023/06/16 05:43:42;;;;;;;;;15.25;14.25;;;;;25.45;35.54;101064.75;5028233;28;29701;-58
2023/06/16 05:46:07;;;;;;;;;14.50;14.50;;;;;25.40;35.25;101062.06;5027835;28;30064;-58
2023/06/16 05:48:33;;;;;;;;;15.00;11.00;;;;;25.33;35.12;101050.38;5028501;28;29499;-58
2023/06/16 05:50:59;;;;;;;;;11.25;11.00;;;;;25.38;35.19;101047.47;5028074;28;29513;-60
2023/06/16 05:53:25;;;;;;;;;13.60;13.60;;;;;25.56;34.67;101057.06;5028389;28;29372;-59
2023/06/16 05:55:50;;;;;;;;;13.25;12.25;;;;;25.65;34.79;101054.34;5027687;28;29673;-58
2023/06/16 05:58:16;;;;;;;;;14.00;13.00;;;;;25.68;34.32;101053.75;5027916;28;29641;-58
2023/06/16 06:00:42;;;;;;;;;14.00;13.25;;;;;25.61;34.49;101042.91;5028005;28;29671;-59
2023/06/16 06:03:07;;;;;;;;;11.20;10.40;;;;;25.62;34.82;101040.94;5029270;28;30053;-56
2023/06/16 06:05:33;;;;;;;;;12.00;11.00;;;;;25.74;35.30;101057.31;5031449;28;30620;-58
2023/06/16 06:07:59;;;;;;;;;20.25;18.00;;;;;25.66;34.63;101048.44;5031110;28;30131;-57
2023/06/16 06:10:24;;;;;;;;;14.00;13.00;;;;;25.76;34.66;101055.84;5031239;28;29768;-58
2023/06/16 06:12:50;;;;;;;;;13.50;12.25;;;;;25.78;34.71;101055.56;5047094;28;29910;-54
2023/06/16 06:15:17;;;;;;;;;14.25;14.25;;;;;25.69;34.48;101058.22;5031341;28;29824;-57
2023/06/16 06:17:43;;;;;;;;;15.00;14.40;;;;;25.69;34.21;101055.41;5013220;28;30273;-56
2023/06/16 06:20:09;;;;;;;;;15.50;15.50;;;;;25.63;34.06;101051.88;5030986;28;29919;-57
2023/06/16 06:22:35;;;;;;;;;15.40;13.80;;;;;25.73;34.14;101064.06;5031659;28;29309;-57
2023/06/16 06:25:01;;;;;;;;;14.25;13.25;;;;;25.64;34.27;101063.94;5030722;28;29868;-57
2023/06/16 06:27:26;;;;;;;;;15.40;14.20;;;;;25.46;34.24;101058.03;5030502;28;29980;-60
2023/06/16 06:29:52;;;;;;;;;15.50;15.50;;;;;25.26;34.45;101037.56;5013341;28;29062;-60
2023/06/16 06:32:17;;;;;;;;;14.75;14.75;;;;;25.46;34.67;101077.69;5030782;28;29764;-58
2023/06/16 06:34:43;;;;;;;;;17.25;15.25;;;;;25.47;34.58;101078.50;5031211;28;29941;-60
2023/06/16 06:37:16;;;;;;;;;17.50;15.75;;;;;25.54;34.69;101070.56;5030716;28;29494;-58
2023/06/16 06:39:41;;;;;;;;;17.40;14.80;;;;;25.65;34.40;101062.78;5031205;28;29321;-59
2023/06/16 06:42:07;;;;;;;;;14.25;14.25;;;;;25.85;33.90;101084.94;5002460;28;29454;-57
2023/06/16 06:44:33;;;;;;;;;15.50;15.50;;;;;25.85;33.66;101084.09;5030666;28;29711;-57
2023/06/16 06:46:58;;;;;;;;;13.00;11.75;;;;;25.91;33.77;101090.44;5031022;28;29234;-59
2023/06/16 06:49:24;;;;;;;;;16.00;15.25;;;;;25.94;33.41;101082.22;5012702;28;29700;-58
2023/06/16 06:51:50;;;;;;;;;19.00;17.50;;;;;25.88;33.46;101075.03;5030517;28;29816;-56
2023/06/16 06:54:16;;;;;;;;;14.00;12.60;;;;;26.06;33.39;101093.00;5012833;28;29626;-57
2023/06/16 06:56:41;;;;;;;;;17.00;15.00;;;;;26.15;33.29;101090.31;5030606;28;29629;-62
2023/06/16 06:59:06;;;;;;;;;14.75;13.50;;;;;26.18;33.10;101105.72;5012868;28;29823;-54
2023/06/16 07:01:32;;;;;;;;;15.50;13.25;;;;;26.19;33.17;101101.78;5032683;28;29588;-55
2023/06/16 07:03:58;;;;;;;;;16.00;15.00;;;;;26.04;33.01;101097.25;5032087;28;29998;-56
2023/06/16 07:06:23;;;;;;;;;14.60;13.40;;;;;26.08;33.20;101109.53;5028373;28;30347;-57
2023/06/16 07:08:50;;;;;;;;;18.25;15.75;;;;;26.08;33.16;101113.22;5028875;28;29960;-56
2023/06/16 07:11:15;;;;;;;;;14.60;14.60;;;;;26.08;32.81;101110.41;5029862;28;29082;-51
2023/06/16 07:13:41;;;;;;;;;13.00;13.00;;;;;26.09;32.81;101114.06;5027474;28;30078;-55
2023/06/16 07:16:07;;;;;;;;;13.50;12.75;;;;;26.08;32.89;101117.97;5028895;28;29983;-56
2023/06/16 07:18:32;;;;;;;;;14.75;14.75;;;;;26.25;32.86;101121.09;5031894;28;29774;-57
2023/06/16 07:20:57;;;;;;;;;16.00;14.50;;;;;26.38;32.96;101127.88;5038346;28;29851;-58
2023/06/16 07:23:25;;;;;;;;;17.50;15.75;;;;;26.45;32.59;101121.84;5009775;28;29873;-59
2023/06/16 07:25:51;;;;;;;;;17.00;16.40;;;;;26.50;32.33;101130.19;5027446;28;29867;-57
2023/06/16 07:28:17;;;;;;;;;13.00;13.00;;;;;26.52;32.71;101116.63;5028358;28;30452;-59
2023/06/16 07:30:42;;;;;;;;;15.25;15.00;;;;;26.61;32.45;101122.38;5028884;28;29709;-57
2023/06/16 07:33:08;;;;;;;;;17.50;15.25;;;;;26.61;32.70;101121.53;5028316;28;29999;-61
2023/06/16 07:35:34;;;;;;;;;15.20;15.20;;;;;26.57;32.16;101117.69;5028279;28;29619;-56
2023/06/16 07:38:00;;;;;;;;;18.75;17.75;;;;;26.64;32.15;101127.34;5027341;28;29602;-52
2023/06/16 07:40:25;;;;;;;;;12.50;12.50;;;;;26.65;32.41;101117.78;5028031;28;29598;-58
2023/06/16 07:42:51;;;;;;;;;15.75;15.75;;;;;26.81;31.93;101117.47;5008531;28;29852;-58
2023/06/16 07:45:17;;;;;;;;;17.50;16.25;;;;;26.88;32.27;101120.69;5017219;28;29797;-58
2023/06/16 07:47:42;;;;;;;;;18.00;15.00;;;;;26.86;32.12;101133.41;5028310;28;30025;-55
2023/06/16 07:50:10;;;;;;;;;17.50;14.25;;;;;26.81;31.47;101111.84;5027348;28;29554;-58
2023/06/16 07:52:36;;;;;;;;;16.20;16.20;;;;;26.92;31.88;101120.91;5010431;28;29906;-56
2023/06/16 07:55:02;;;;;;;;;15.75;15.75;;;;;27.01;31.80;101132.28;5028006;28;29549;-56
2023/06/16 07:57:27;;;;;;;;;17.00;16.00;;;;;27.11;31.90;101131.22;5028060;28;30204;-56
2023/06/16 07:59:52;;;;;;;;;17.75;15.25;;;;;27.16;31.81;101123.47;5028059;28;29815;-59
2023/06/16 08:02:18;;;;;;;;;18.75;17.25;;;;;27.21;31.17;101128.16;5000685;28;30705;-59
2023/06/16 08:04:43;;;;;;;;;15.25;15.25;;;;;27.24;31.79;101123.88;5009052;28;29138;-56
2023/06/16 08:07:09;;;;;;;;;17.00;16.00;;;;;27.26;31.23;101113.16;5026809;28;30132;-59
2023/06/16 08:09:34;;;;;;;;;15.00;15.00;;;;;27.27;31.05;101117.63;5027156;28;29927;-59
2023/06/16 08:12:00;;;;;;;;;14.75;14.75;;;;;27.32;32.74;101117.50;5008591;28;30671;-57
2023/06/16 08:14:27;;;;;;;;;16.75;16.25;;;;;27.38;33.66;101123.84;5024930;28;29390;-57
2023/06/16 08:16:53;;;;;;;;;18.40;16.00;;;;;27.40;31.43;101122.38;5026978;28;29644;-57
2023/06/16 08:19:18;;;;;;;;;17.00;16.00;;;;;27.45;31.02;101115.78;5025120;28;29424;-58
2023/06/16 08:21:44;;;;;;;;;19.00;17.25;;;;;27.52;31.86;101110.53;5038543;28;29806;-59
2023/06/16 08:24:09;;;;;;;;;16.75;14.75;;;;;27.51;30.68;101116.50;5015640;28;29895;-60
2023/06/16 08:26:35;;;;;;;;;15.25;15.00;;;;;27.46;31.48;101111.81;5025070;28;29412;-57
2023/06/16 08:29:00;;;;;;;;;11.50;11.50;;;;;27.51;30.37;101105.22;5009522;28;29877;-59
2023/06/16 08:31:27;;;;;;;;;14.50;13.25;;;;;27.56;30.51;101107.91;5026314;28;41486;-56
2023/06/16 08:33:54;;;;;;;;;18.60;18.00;;;;;27.56;31.67;101091.84;5007386;28;29439;-60
2023/06/16 08:36:21;;;;;;;;;16.60;14.60;;;;;27.47;29.35;101097.41;5025613;28;29504;-59
2023/06/16 08:38:46;;;;;;;;;12.60;12.20;;;;;27.51;29.21;101102.41;5028070;28;29513;-62
2023/06/16 08:41:14;;;;;;;;;14.75;14.75;;;;;27.43;29.12;101101.19;5026509;28;29703;-60
2023/06/16 08:43:40;;;;;;;;;16.80;14.60;;;;;27.46;28.57;101104.22;5020167;28;31140;-58
2023/06/16 08:46:10;;;;;;;;;16.80;16.80;;;;;27.51;28.56;101102.41;4989212;28;29663;-57
2023/06/16 08:48:36;;;;;;;;;17.20;13.40;;;;;27.50;29.16;101103.56;5007359;28;30018;-60
2023/06/16 08:51:02;;;;;;;;;14.40;13.60;;;;;27.55;28.41;101100.63;4988151;28;30309;-59
2023/06/16 08:53:31;;;;;;;;;16.60;15.40;;;;;27.52;28.59;101092.81;5007677;28;30039;-60
2023/06/16 08:55:57;;;;;;;;;13.00;13.00;;;;;27.66;28.33;101090.78;5005802;28;29411;-60
2023/06/16 08:58:22;;;;;;;;;13.80;13.20;;;;;27.84;28.48;101085.25;5003819;28;29956;-59
2023/06/16 09:00:50;;;;;;;;;11.25;10.25;;;;;28.02;28.13;101094.69;5022645;28;29635;-60
2023/06/16 09:03:17;;;;;;;;;15.60;13.40;;;;;28.09;27.44;101091.38;5000099;28;29356;-61
2023/06/16 09:05:42;;;;;;;;;11.80;11.20;;;;;28.23;27.69;101097.78;5004352;28;29673;-60
2023/06/16 09:08:08;;;;;;;;;10.00;10.00;;;;;28.32;25.98;101092.19;5007158;28;29540;-61
2023/06/16 09:10:34;;;;;;;;;14.25;13.00;;;;;28.34;26.65;101089.88;5006769;28;29725;-57
2023/06/16 09:13:02;;;;;;;;;11.60;11.40;;;;;28.43;26.65;101091.91;5007380;28;29628;-61
2023/06/16 09:15:28;;;;;;;;;11.80;11.00;;;;;28.60;25.83;101093.97;5005627;28;29343;-57
2023/06/16 09:17:56;;;;;;;;;12.50;12.50;;;;;28.73;25.62;101095.84;5007478;28;29828;-61
2023/06/16 09:20:23;;;;;;;;;11.00;9.80;;;;;28.73;24.46;101090.19;4986408;28;30544;-61
2023/06/16 09:23:04;;;;;;;;;9.40;8.00;;;;;28.82;25.78;101084.56;5010259;28;29465;-62
2023/06/16 09:25:33;;;;;;;;;12.60;12.60;;;;;28.88;24.95;101093.72;5003316;28;30093;-59
2023/06/16 09:28:01;;;;;;;;;9.20;9.20;;;;;28.97;24.87;101094.56;5007891;28;29355;-60
2023/06/16 09:30:30;;;;;;;;;10.80;10.80;;;;;28.98;25.49;101087.78;5003864;28;30483;-59
2023/06/16 09:32:56;;;;;;;;;12.00;10.40;;;;;28.97;25.04;101080.44;5005762;28;29905;-60
2023/06/16 09:35:27;;;;;;;;;11.00;10.00;;;;;29.05;24.61;101084.44;4986325;28;29951;-56
2023/06/16 09:37:54;;;;;;;;;10.80;9.20;;;;;29.13;24.61;101077.16;5023514;28;29778;-60
2023/06/16 09:40:20;;;;;;;;;12.20;11.60;;;;;29.13;24.42;101085.63;5007648;28;30381;-62
2023/06/16 09:42:47;;;;;;;;;10.20;9.60;;;;;29.22;24.66;101077.97;5007099;28;29432;-61
2023/06/16 09:45:16;;;;;;;;;10.80;9.60;;;;;29.32;24.79;101080.50;5008671;28;29937;-61
2023/06/16 09:47:45;;;;;;;;;13.80;12.80;;;;;29.35;24.18;101082.63;5022322;28;29517;-61
2023/06/16 09:50:15;;;;;;;;;10.80;10.80;;;;;29.35;23.74;101073.34;5029921;28;29729;-59
2023/06/16 09:52:44;;;;;;;;;11.20;10.00;;;;;29.35;24.05;101082.63;5021359;28;29862;-58
2023/06/16 09:55:11;;;;;;;;;11.40;11.40;;;;;29.36;23.99;101073.00;4953617;28;30735;-58
2023/06/16 09:57:38;;;;;;;;;8.40;8.00;;;;;29.43;24.71;101071.66;5016463;28;29945;-62
2023/06/16 10:00:15;;;;;;;;;15.00;12.00;;;;;29.48;25.23;101080.84;5014956;28;30384;-51
2023/06/16 10:02:46;;;;;;;;;8.80;8.80;;;;;29.53;24.66;101073.34;4997085;28;29486;-62
2023/06/16 10:05:17;;;;;;;;;14.80;13.20;;;;;29.52;24.80;101080.16;5008864;28;28978;-58
2023/06/16 10:07:43;;;;;;;;;14.20;12.60;;;;;29.52;24.80;101075.34;5010079;28;29707;-59
2023/06/16 10:10:12;;;;;;;;;14.60;12.80;;;;;29.54;24.05;101075.84;5006248;28;29791;-59
2023/06/16 10:12:46;;;;;;;;;12.60;11.80;;;;;29.54;25.46;101078.66;5007908;28;29899;-57
2023/06/16 10:15:20;;;;;;;;;11.20;11.00;;;;;29.58;24.71;101074.03;5008721;28;29820;-56
2023/06/16 10:17:46;;;;;;;;;11.80;11.60;;;;;29.59;24.05;101072.00;5007393;28;29989;-58
2023/06/16 10:20:13;;;;;;;;;13.00;11.40;;;;;29.59;24.14;101061.53;5011385;28;30800;-59
2023/06/16 10:22:38;;;;;;;;;11.60;9.80;;;;;29.32;23.99;101069.19;5020399;28;29991;-55
2023/06/16 10:25:04;;;;;;;;;12.25;12.25;;;;;29.35;24.51;101070.50;5010048;28;29562;-57
2023/06/16 10:27:30;;;;;;;;;11.80;9.60;;;;;29.39;24.03;101065.84;5028637;28;29449;-58
2023/06/16 10:29:57;;;;;;;;;13.00;11.75;;;;;29.44;24.99;101070.50;5026613;28;31238;-62
2023/06/16 10:32:24;;;;;;;;;14.20;12.80;;;;;29.36;24.56;101077.81;5021811;28;29895;-60
2023/06/16 10:34:56;;;;;;;;;10.00;10.00;;;;;29.33;24.17;101072.81;5022328;28;29592;-53
2023/06/16 10:37:22;;;;;;;;;11.80;11.80;;;;;29.32;24.12;101069.19;5008086;28;29746;-58
2023/06/16 10:39:48;;;;;;;;;11.60;11.60;;;;;29.32;24.45;101060.72;5010402;28;30249;-57
2023/06/16 10:42:14;;;;;;;;;16.50;14.00;;;;;29.32;23.75;101062.69;5016203;28;29275;-56
2023/06/16 10:44:40;;;;;;;;;12.80;12.20;;;;;29.26;23.89;101059.22;5030554;28;29851;-57
2023/06/16 10:47:08;;;;;;;;;10.50;10.50;;;;;29.35;24.60;101062.03;5030946;28;29732;-56
2023/06/16 10:50:02;;;;;;;;;13.20;12.00;;;;;29.47;24.99;101064.22;5030177;28;29799;-51
2023/06/16 10:52:27;;;;;;;;;11.20;10.20;;;;;29.58;24.50;101062.72;5025249;28;28932;-55
2023/06/16 10:54:55;;;;;;;;;14.75;14.75;;;;;29.72;24.82;101056.03;4991975;28;29644;-56
2023/06/16 10:57:20;;;;;;;;;11.20;9.40;;;;;29.83;24.50;101050.84;5032592;28;29096;-60
2023/06/16 10:59:59;;;;;;;;;11.50;10.75;;;;;29.99;24.57;101060.44;5028398;28;29849;-59
2023/06/16 11:02:29;;;;;;;;;11.80;11.80;;;;;30.06;23.77;101056.25;4997985;28;30403;-59
2023/06/16 11:05:13;;;;;;;;;14.00;14.00;;;;;30.07;22.95;101052.25;5008653;28;29383;-57
2023/06/16 11:08:11;;;;;;;;;15.00;11.80;;;;;30.11;23.92;101045.63;5008930;28;29491;-58